createdAt,value
2017-05-18T00:01:52.667Z,89.40
2017-05-18T00:04:21.641Z,89.50
2017-05-18T00:06:50.640Z,89.70
2017-05-18T00:09:19.614Z,89.90
2017-05-18T00:11:48.932Z,90.10
2017-05-18T00:14:17.921Z,90.30
2017-05-18T00:16:46.912Z,90.40
2017-05-18T00:19:15.900Z,90.40
2017-05-18T00:21:44.830Z,90.50
2017-05-18T00:24:14.846Z,90.60
2017-05-18T00:26:43.828Z,90.60
2017-05-18T00:29:12.813Z,90.70
2017-05-18T00:31:41.805Z,90.70
2017-05-18T00:34:10.769Z,90.90
2017-05-18T00:36:40.122Z,90.80
2017-05-18T00:39:09.099Z,90.90
2017-05-18T00:41:38.819Z,90.80
2017-05-18T00:44:08.202Z,91.10
2017-05-18T00:46:38.142Z,90.80
2017-05-18T00:49:07.130Z,90.70
2017-05-18T00:51:36.127Z,90.80
2017-05-18T00:54:05.092Z,90.90
2017-05-18T00:56:35.195Z,91.10
2017-05-18T00:59:04.139Z,91.10
2017-05-18T01:01:33.192Z,91.10
2017-05-18T01:04:02.913Z,91.20
2017-05-18T01:06:32.634Z,91.30
2017-05-18T01:09:02.006Z,91.40
2017-05-18T01:11:31.725Z,91.30
2017-05-18T01:14:01.463Z,91.30
2017-05-18T01:16:31.176Z,91.00
2017-05-18T01:19:00.152Z,91.50
2017-05-18T01:21:29.396Z,91.30
2017-05-18T01:23:58.375Z,91.30
2017-05-18T01:26:27.336Z,91.40
2017-05-18T01:28:56.682Z,91.50
2017-05-18T01:31:25.638Z,91.50
2017-05-18T01:33:54.656Z,91.60
2017-05-18T01:36:23.595Z,91.70
2017-05-18T01:38:52.564Z,91.70
2017-05-18T01:41:22.635Z,91.70
2017-05-18T01:43:51.625Z,91.70
2017-05-18T01:46:20.602Z,91.70
2017-05-18T01:48:49.588Z,91.70
2017-05-18T01:51:18.609Z,91.80
2017-05-18T01:53:47.921Z,91.80
2017-05-18T01:56:16.877Z,91.80
2017-05-18T01:58:45.832Z,91.80
2017-05-18T02:01:15.904Z,91.90
2017-05-18T02:03:44.873Z,91.90
2017-05-18T02:06:13.837Z,92.00
2017-05-18T02:08:42.834Z,92.20
2017-05-18T02:11:11.812Z,92.10
2017-05-18T02:13:41.907Z,92.10
2017-05-18T02:16:10.869Z,92.20
2017-05-18T02:18:39.849Z,92.20
2017-05-18T02:21:09.180Z,92.30
2017-05-18T02:23:38.116Z,92.30
2017-05-18T02:26:07.092Z,92.30
2017-05-18T02:28:36.831Z,92.20
2017-05-18T02:31:05.793Z,92.20
2017-05-18T02:33:35.772Z,92.20
2017-05-18T02:36:04.741Z,92.10
2017-05-18T02:38:33.729Z,92.10
2017-05-18T02:41:02.723Z,92.30
2017-05-18T02:43:31.689Z,92.30
2017-05-18T02:46:01.033Z,92.30
2017-05-18T02:48:30.853Z,92.30
2017-05-18T02:50:59.911Z,92.30
2017-05-18T02:53:28.854Z,92.30
2017-05-18T02:55:57.912Z,92.30
2017-05-18T02:58:26.846Z,92.40
2017-05-18T03:00:56.917Z,92.40
2017-05-18T03:03:25.864Z,92.40
2017-05-18T03:05:54.821Z,92.40
2017-05-18T03:08:23.807Z,92.50
2017-05-18T03:10:52.772Z,92.70
2017-05-18T03:13:22.051Z,92.70
2017-05-18T03:15:51.017Z,92.80
2017-05-18T03:18:20.728Z,92.80
2017-05-18T03:20:49.702Z,93.10
2017-05-18T03:23:23.159Z,92.80
2017-05-18T03:25:52.704Z,92.80
2017-05-18T03:28:21.708Z,92.90
2017-05-18T03:30:50.673Z,92.90
2017-05-18T03:33:19.733Z,92.90
2017-05-18T03:35:48.708Z,92.90
2017-05-18T03:38:17.976Z,92.90
2017-05-18T03:40:47.687Z,92.90
2017-05-18T03:43:17.429Z,92.90
2017-05-18T03:45:46.428Z,92.90
2017-05-18T03:48:15.402Z,93.00
2017-05-18T03:50:44.737Z,92.90
2017-05-18T03:53:13.700Z,92.90
2017-05-18T03:55:42.689Z,92.90
2017-05-18T03:58:11.678Z,92.80
2017-05-18T04:00:40.636Z,92.80
2017-05-18T04:03:10.632Z,92.80
2017-05-18T04:05:39.605Z,92.80
2017-05-18T04:08:08.582Z,92.90
2017-05-18T04:10:37.575Z,92.90
2017-05-18T04:13:06.560Z,92.90
2017-05-18T04:15:35.870Z,92.90
2017-05-18T04:18:04.851Z,93.10
2017-05-18T04:20:33.812Z,93.10
2017-05-18T04:23:02.817Z,93.10
2017-05-18T04:25:31.780Z,93.10
2017-05-18T04:28:01.275Z,93.20
2017-05-18T04:30:30.998Z,93.10
2017-05-18T04:32:59.998Z,93.10
2017-05-18T04:35:28.998Z,93.20
2017-05-18T04:37:57.992Z,93.20
2017-05-18T04:40:27.352Z,93.20
2017-05-18T04:42:57.058Z,93.30
2017-05-18T04:45:27.050Z,93.30
2017-05-18T04:47:56.013Z,93.20
2017-05-18T04:50:24.990Z,93.20
2017-05-18T04:52:53.974Z,93.10
2017-05-18T04:55:22.958Z,93.20
2017-05-18T04:57:52.312Z,93.20
2017-05-18T05:00:21.291Z,93.20
2017-05-18T05:02:50.220Z,93.20
2017-05-18T05:05:20.212Z,93.90
2017-05-18T05:07:49.179Z,94.30
2017-05-18T05:10:18.161Z,93.90
2017-05-18T05:12:47.152Z,93.40
2017-05-18T05:15:16.142Z,92.60
2017-05-18T05:17:45.404Z,92.30
2017-05-18T05:20:14.375Z,92.20
2017-05-18T05:22:44.093Z,92.30
2017-05-18T05:25:13.825Z,92.20
2017-05-18T05:27:42.794Z,92.00
2017-05-18T05:30:12.151Z,91.60
2017-05-18T05:32:41.127Z,91.40
2017-05-18T05:35:10.110Z,91.20
2017-05-18T05:37:39.341Z,91.10
2017-05-18T05:40:08.305Z,91.20
2017-05-18T05:42:37.387Z,91.00
2017-05-18T05:45:06.417Z,91.00
2017-05-18T05:50:30.075Z,90.60
2017-05-18T05:52:59.330Z,90.30
2017-05-18T05:55:29.037Z,90.10
2017-05-18T05:57:59.055Z,90.20
2017-05-18T06:00:28.759Z,90.20
2017-05-18T06:02:58.862Z,90.60
2017-05-18T06:05:27.745Z,90.50
2017-05-18T06:07:56.751Z,90.40
2017-05-18T06:10:25.728Z,90.10
2017-05-18T06:12:54.698Z,90.30
2017-05-18T06:15:24.221Z,90.20
2017-05-18T06:17:53.194Z,90.10
2017-05-18T06:20:22.166Z,89.90
2017-05-18T06:22:51.143Z,89.30
2017-05-18T06:25:20.137Z,88.80
2017-05-18T06:27:49.398Z,88.30
2017-05-18T06:30:19.118Z,87.20
2017-05-18T06:32:48.882Z,86.50
2017-05-18T06:35:17.938Z,86.50
2017-05-18T06:37:46.931Z,86.50
2017-05-18T06:40:16.191Z,86.40
2017-05-18T06:42:45.156Z,86.60
2017-05-18T06:45:14.184Z,86.00
2017-05-18T06:47:43.942Z,86.10
2017-05-18T06:50:12.913Z,86.70
2017-05-18T06:52:42.250Z,86.20
2017-05-18T06:55:11.222Z,85.80
2017-05-18T06:57:40.130Z,85.10
2017-05-18T07:00:09.970Z,85.00
2017-05-18T07:02:39.709Z,84.90
2017-05-18T07:05:08.992Z,85.30
2017-05-18T07:07:38.735Z,85.20
2017-05-18T07:10:07.748Z,84.90
2017-05-18T07:12:37.037Z,84.10
2017-05-18T07:15:06.021Z,84.00
2017-05-18T07:17:34.995Z,83.50
2017-05-18T07:20:03.985Z,83.50
2017-05-18T07:22:32.940Z,83.30
2017-05-18T07:25:02.954Z,82.70
2017-05-18T07:27:31.915Z,83.00
2017-05-18T07:30:00.889Z,83.30
2017-05-18T07:32:29.951Z,81.70
2017-05-18T07:34:59.146Z,81.10
2017-05-18T07:37:29.426Z,81.20
2017-05-18T07:39:58.432Z,81.10
2017-05-18T07:42:27.416Z,81.00
2017-05-18T07:44:56.520Z,80.60
2017-05-18T07:47:26.257Z,79.70
2017-05-18T07:49:55.222Z,78.90
2017-05-18T07:52:24.948Z,78.20
2017-05-18T07:54:54.670Z,76.10
2017-05-18T07:57:24.010Z,75.00
2017-05-18T07:59:52.972Z,74.10
2017-05-18T08:02:21.922Z,74.00
2017-05-18T08:04:51.620Z,73.60
2017-05-18T08:07:21.333Z,73.80
2017-05-18T08:09:50.649Z,72.20
2017-05-18T08:12:20.355Z,70.50
2017-05-18T08:14:50.199Z,70.00
2017-05-18T08:17:19.164Z,69.40
2017-05-18T08:19:48.136Z,68.00
2017-05-18T08:22:17.871Z,68.40
2017-05-18T08:24:49.785Z,68.80
2017-05-18T08:32:51.936Z,65.80
2017-05-18T08:35:20.876Z,65.10
2017-05-18T08:37:50.149Z,65.80
2017-05-18T08:43:22.756Z,66.60
2017-05-18T08:48:33.578Z,65.80
2017-05-18T08:56:53.130Z,61.50
2017-05-18T08:59:22.918Z,60.80
2017-05-18T09:02:05.242Z,63.10
2017-05-18T09:04:35.271Z,62.60
2017-05-18T09:09:54.555Z,59.10
2017-05-18T09:12:24.280Z,57.80
2017-05-18T09:14:53.269Z,57.40
2017-05-18T09:17:44.321Z,57.80
2017-05-18T09:20:13.312Z,58.50
2017-05-18T09:22:52.949Z,58.90
2017-05-18T09:25:21.914Z,56.90
2017-05-18T09:28:08.093Z,56.70
2017-05-18T09:30:41.472Z,55.40
2017-05-18T09:33:10.964Z,56.60
2017-05-18T09:36:04.806Z,56.60
2017-05-18T09:38:38.046Z,56.40
2017-05-18T09:41:09.505Z,55.90
2017-05-18T09:43:53.645Z,55.70
2017-05-18T09:46:22.613Z,54.50
2017-05-18T09:48:51.571Z,55.40
2017-05-18T09:54:15.580Z,53.50
2017-05-18T09:56:44.553Z,50.70
2017-05-18T09:59:13.505Z,52.60
2017-05-18T10:01:42.586Z,51.90
2017-05-18T10:04:11.545Z,49.60
2017-05-18T10:06:40.520Z,50.30
2017-05-18T10:09:09.487Z,50.40
2017-05-18T10:11:39.180Z,49.00
2017-05-18T10:14:08.386Z,48.30
2017-05-18T10:16:37.364Z,48.40
2017-05-18T10:19:06.321Z,47.90
2017-05-18T10:21:35.288Z,47.70
2017-05-18T10:24:04.251Z,45.00
2017-05-18T10:26:34.242Z,45.00
2017-05-18T10:29:03.208Z,45.80
2017-05-18T10:31:32.163Z,44.80
2017-05-18T10:34:01.876Z,45.50
2017-05-18T10:36:30.923Z,45.20
2017-05-18T10:39:00.213Z,45.20
2017-05-18T10:41:29.178Z,45.40
2017-05-18T10:43:58.151Z,44.40
2017-05-18T10:46:27.140Z,43.30
2017-05-18T10:48:56.108Z,42.80
2017-05-18T10:51:25.831Z,41.50
2017-05-18T10:53:54.711Z,41.60
2017-05-18T10:56:23.710Z,41.20
2017-05-18T10:58:53.396Z,40.80
2017-05-18T11:01:22.610Z,40.30
2017-05-18T11:03:52.307Z,40.70
2017-05-18T11:06:21.247Z,39.90
2017-05-18T11:08:50.545Z,39.40
2017-05-18T11:11:19.543Z,39.60
2017-05-18T11:13:48.555Z,38.80
2017-05-18T11:16:17.941Z,38.50
2017-05-18T11:18:46.894Z,37.20
2017-05-18T11:21:15.849Z,37.40
2017-05-18T11:23:44.818Z,36.40
2017-05-18T11:26:13.828Z,37.70
2017-05-18T11:28:43.098Z,37.50
2017-05-18T11:31:12.211Z,36.90
2017-05-18T11:33:41.193Z,36.00
2017-05-18T11:36:10.484Z,35.30
2017-05-18T11:38:39.434Z,34.40
2017-05-18T11:41:08.404Z,32.80
2017-05-18T11:43:37.636Z,32.80
2017-05-18T11:46:06.599Z,33.10
2017-05-18T11:48:39.331Z,33.00
2017-05-18T11:51:08.286Z,32.30
2017-05-18T11:53:37.243Z,31.40
2017-05-18T11:56:06.221Z,32.30
2017-05-18T11:58:35.177Z,30.00
2017-05-18T12:01:04.134Z,31.20
2017-05-18T12:03:33.840Z,33.00
2017-05-18T12:06:03.201Z,33.00
2017-05-18T12:08:32.149Z,31.40
2017-05-18T12:11:01.103Z,32.00
2017-05-18T12:13:30.390Z,31.40
2017-05-18T12:15:59.357Z,30.40
2017-05-18T12:18:28.309Z,30.50
2017-05-18T12:20:57.284Z,30.30
2017-05-18T12:23:26.984Z,30.30
2017-05-18T12:25:56.712Z,30.00
2017-05-18T12:28:25.682Z,30.00
2017-05-18T12:30:55.396Z,30.70
2017-05-18T12:33:28.166Z,29.50
2017-05-18T12:35:57.141Z,29.70
2017-05-18T12:38:26.120Z,29.90
2017-05-18T12:40:55.083Z,29.00
2017-05-18T12:43:24.032Z,29.50
2017-05-18T12:45:53.034Z,28.90
2017-05-18T12:48:22.717Z,28.90
2017-05-18T12:50:51.699Z,29.30
2017-05-18T12:53:20.645Z,29.30
2017-05-18T12:55:49.621Z,29.20
2017-05-18T12:58:19.355Z,28.40
2017-05-18T13:00:48.676Z,28.80
2017-05-18T13:03:17.571Z,28.60
2017-05-18T13:05:47.328Z,28.70
2017-05-18T13:08:16.389Z,28.90
2017-05-18T13:10:45.325Z,28.90
2017-05-18T13:13:14.314Z,28.20
2017-05-18T13:15:43.291Z,27.60
2017-05-18T13:18:13.001Z,27.80
2017-05-18T13:20:42.719Z,27.20
2017-05-18T13:23:11.843Z,27.40
2017-05-18T13:25:40.820Z,27.70
2017-05-18T13:28:09.800Z,26.80
2017-05-18T13:30:38.795Z,27.10
2017-05-18T13:33:07.772Z,27.50
2017-05-18T13:35:36.733Z,28.40
2017-05-18T13:38:05.732Z,28.10
2017-05-18T13:40:35.434Z,27.20
2017-05-18T13:43:04.720Z,27.40
2017-05-18T13:45:33.661Z,27.70
2017-05-18T13:48:02.638Z,26.70
2017-05-18T13:50:31.617Z,27.50
2017-05-18T13:53:01.312Z,27.40
2017-05-18T13:55:30.277Z,27.00
2017-05-18T13:57:59.151Z,26.70
2017-05-18T14:00:28.244Z,27.40
2017-05-18T14:02:57.200Z,28.20
2017-05-18T14:05:26.173Z,28.20
2017-05-18T14:07:55.129Z,27.80
2017-05-18T14:10:24.437Z,27.80
2017-05-18T14:12:53.400Z,27.90
2017-05-18T14:15:22.429Z,27.20
2017-05-18T14:17:51.420Z,27.40
2017-05-18T14:20:20.361Z,27.40
2017-05-18T14:22:49.361Z,27.50
2017-05-18T14:25:18.311Z,27.80
2017-05-18T14:27:48.025Z,28.20
2017-05-18T14:30:17.736Z,28.20
2017-05-18T14:32:47.443Z,28.60
2017-05-18T14:35:17.143Z,29.10
2017-05-18T14:37:46.873Z,29.00
2017-05-18T14:40:15.877Z,28.50
2017-05-18T14:42:44.923Z,28.20
2017-05-18T14:45:13.922Z,28.00
2017-05-18T14:47:43.635Z,27.40
2017-05-18T14:50:13.403Z,27.40
2017-05-18T14:52:42.703Z,27.60
2017-05-18T14:55:11.659Z,27.60
2017-05-18T14:57:40.598Z,27.50
2017-05-18T15:00:09.571Z,27.00
2017-05-18T15:02:38.703Z,27.10
2017-05-18T15:05:07.716Z,27.90
2017-05-18T15:07:36.687Z,28.30
2017-05-18T15:10:12.971Z,28.80
2017-05-18T15:12:41.940Z,28.70
2017-05-18T15:15:12.056Z,28.50
2017-05-18T15:17:41.017Z,27.80
2017-05-18T15:20:09.987Z,27.90
2017-05-18T15:22:38.969Z,27.30
2017-05-18T15:25:07.920Z,26.60
2017-05-18T15:27:38.021Z,26.50
2017-05-18T15:30:06.989Z,26.80
2017-05-18T15:32:35.928Z,27.10
2017-05-18T15:35:05.638Z,27.00
2017-05-18T15:37:35.350Z,26.20
2017-05-18T15:40:05.079Z,25.80
2017-05-18T15:42:34.048Z,25.80
2017-05-18T15:45:03.757Z,26.20
2017-05-18T15:47:33.450Z,25.70
2017-05-18T15:50:03.422Z,25.70
2017-05-18T15:52:32.377Z,25.80
2017-05-18T15:55:01.338Z,25.90
2017-05-18T15:57:31.054Z,25.70
2017-05-18T16:00:00.755Z,26.10
2017-05-18T16:02:30.032Z,26.60
2017-05-18T16:04:59.043Z,25.40
2017-05-18T16:07:28.789Z,25.10
2017-05-18T16:09:57.855Z,25.30
2017-05-18T16:12:27.550Z,25.50
2017-05-18T16:14:56.537Z,25.80
2017-05-18T16:17:25.505Z,26.40
2017-05-18T16:19:54.820Z,25.80
2017-05-18T16:22:23.784Z,25.60
2017-05-18T16:24:52.660Z,25.60
2017-05-18T16:27:21.692Z,25.60
2017-05-18T16:29:50.671Z,25.80
2017-05-18T16:32:19.647Z,25.70
2017-05-18T16:34:48.617Z,26.50
2017-05-18T16:37:17.911Z,26.60
2017-05-18T16:39:46.864Z,26.30
2017-05-18T16:42:15.835Z,26.90
2017-05-18T16:44:44.847Z,26.90
2017-05-18T16:47:13.813Z,27.90
2017-05-18T16:49:42.806Z,28.50
2017-05-18T16:52:11.766Z,28.70
2017-05-18T16:54:40.754Z,28.50
2017-05-18T16:57:09.786Z,28.30
2017-05-18T16:59:38.759Z,28.00
2017-05-18T17:02:07.718Z,27.70
2017-05-18T17:04:36.690Z,29.00
2017-05-18T17:07:06.395Z,29.20
2017-05-18T17:09:36.126Z,28.80
2017-05-18T17:12:05.102Z,29.10
2017-05-18T17:14:34.829Z,29.20
2017-05-18T17:17:03.790Z,30.00
2017-05-18T17:19:33.585Z,30.20
2017-05-18T17:22:02.536Z,30.50
2017-05-18T17:24:31.508Z,31.00
2017-05-18T17:27:00.458Z,32.20
2017-05-18T17:29:29.477Z,33.00
2017-05-18T17:31:59.186Z,34.20
2017-05-18T17:34:28.147Z,35.80
2017-05-18T17:36:57.130Z,37.10
2017-05-18T17:39:26.417Z,37.50
2017-05-18T17:41:55.379Z,38.30
2017-05-18T17:44:24.347Z,39.00
2017-05-18T17:46:53.335Z,39.80
2017-05-18T17:49:22.306Z,40.30
2017-05-18T17:51:52.042Z,41.20
2017-05-18T17:54:21.040Z,42.00
2017-05-18T17:56:50.016Z,43.10
2017-05-18T17:59:19.704Z,45.30
2017-05-18T18:01:48.692Z,47.10
2017-05-18T18:04:17.652Z,46.80
2017-05-18T18:06:46.631Z,47.60
2017-05-18T18:09:15.601Z,49.20
2017-05-18T18:11:44.594Z,51.00
2017-05-18T18:14:13.547Z,51.80
2017-05-18T18:16:42.799Z,53.30
2017-05-18T18:19:11.755Z,55.10
2017-05-18T18:21:41.455Z,55.50
2017-05-18T18:24:11.187Z,55.90
2017-05-18T18:26:40.152Z,56.30
2017-05-18T18:29:09.915Z,57.80
2017-05-18T18:31:38.883Z,58.40
2017-05-18T18:34:07.860Z,58.30
2017-05-18T18:36:36.838Z,59.30
2017-05-18T18:39:06.569Z,58.50
2017-05-18T18:41:35.528Z,58.90
2017-05-18T18:44:05.628Z,60.00
2017-05-18T18:46:34.626Z,61.40
2017-05-18T18:49:04.350Z,62.80
2017-05-18T18:51:34.068Z,64.70
2017-05-18T18:54:03.773Z,65.00
2017-05-18T18:56:33.503Z,65.50
2017-05-18T18:59:02.453Z,64.80
2017-05-18T19:01:31.433Z,65.00
2017-05-18T19:04:00.367Z,65.10
2017-05-18T19:06:29.331Z,65.40
2017-05-18T19:08:59.036Z,65.40
2017-05-18T19:11:28.011Z,65.70
2017-05-18T19:13:56.959Z,66.20
2017-05-18T19:16:25.981Z,66.50
2017-05-18T19:18:54.943Z,67.80
2017-05-18T19:21:23.961Z,68.30
2017-05-18T19:23:52.940Z,69.00
2017-05-18T19:26:22.249Z,70.10
2017-05-18T19:28:51.207Z,70.70
2017-05-18T19:31:20.173Z,70.60
2017-05-18T19:33:49.908Z,70.80
2017-05-18T19:36:18.875Z,71.20
2017-05-18T19:38:48.603Z,71.50
2017-05-18T19:41:17.575Z,72.10
2017-05-18T19:43:46.580Z,72.40
2017-05-18T19:46:15.613Z,73.50
2017-05-18T19:48:44.595Z,73.60
2017-05-18T19:51:13.565Z,73.60
2017-05-18T19:53:42.820Z,73.80
2017-05-18T19:56:11.776Z,74.10
2017-05-18T19:58:40.746Z,75.20
2017-05-18T20:01:09.748Z,75.00
2017-05-18T20:03:38.710Z,75.00
2017-05-18T20:06:07.693Z,75.90
2017-05-18T20:08:37.413Z,75.70
2017-05-18T20:11:06.684Z,76.00
2017-05-18T20:13:35.584Z,75.80
2017-05-18T20:16:04.456Z,76.80
2017-05-18T20:18:33.784Z,76.70
2017-05-18T20:21:02.712Z,77.40
2017-05-18T20:23:31.646Z,77.30
2017-05-18T20:26:01.327Z,77.90
2017-05-18T20:28:31.136Z,78.60
2017-05-18T20:31:00.096Z,78.40
2017-05-18T20:33:29.023Z,78.00
2017-05-18T20:35:58.269Z,78.50
2017-05-18T20:38:27.171Z,78.70
2017-05-18T20:40:56.081Z,79.00
2017-05-18T20:43:25.003Z,79.80
2017-05-18T20:45:54.672Z,80.60
2017-05-18T20:48:23.624Z,80.70
2017-05-18T20:50:52.526Z,80.80
2017-05-18T20:53:21.477Z,80.90
2017-05-18T20:55:51.152Z,81.10
2017-05-18T20:58:20.112Z,81.20
2017-05-18T21:00:49.035Z,81.70
2017-05-18T21:03:17.989Z,81.70
2017-05-18T21:05:46.899Z,81.80
2017-05-18T21:08:15.838Z,82.10
2017-05-18T21:10:45.511Z,82.10
2017-05-18T21:15:49.638Z,82.60
2017-05-18T21:18:18.587Z,82.60
2017-05-18T21:20:47.513Z,82.90
2017-05-18T21:23:16.452Z,83.10
2017-05-18T21:25:46.112Z,83.70
2017-05-18T21:28:15.434Z,84.30
2017-05-18T21:30:44.197Z,84.50
2017-05-18T21:33:13.177Z,84.70
2017-05-18T21:35:42.187Z,85.00
2017-05-18T21:38:11.109Z,85.00
2017-05-18T21:40:40.791Z,85.50
2017-05-18T21:43:09.722Z,85.60
2017-05-18T21:45:38.925Z,85.80
2017-05-18T21:48:07.846Z,86.50
2017-05-18T21:50:36.756Z,86.80
2017-05-18T21:53:05.718Z,86.90
2017-05-18T21:55:34.654Z,86.90
2017-05-18T21:58:03.608Z,87.20
2017-05-18T22:00:32.556Z,87.40
2017-05-18T22:03:01.522Z,87.60
2017-05-18T22:05:30.460Z,87.70
2017-05-18T22:07:59.691Z,87.50
2017-05-18T22:10:28.668Z,87.70
2017-05-18T22:12:57.637Z,87.90
2017-05-18T22:15:26.589Z,88.40
2017-05-18T22:17:55.569Z,88.90
2017-05-18T22:20:24.552Z,89.00
2017-05-18T22:22:54.287Z,89.10
2017-05-18T22:25:23.277Z,88.90
2017-05-18T22:27:52.263Z,89.00
2017-05-18T22:30:21.216Z,89.00
2017-05-18T22:32:50.203Z,89.10
2017-05-18T22:35:19.157Z,89.20
2017-05-18T22:37:48.147Z,89.50
2017-05-18T22:40:17.105Z,89.40
2017-05-18T22:42:46.076Z,89.50
2017-05-18T22:45:15.042Z,89.60
2017-05-18T22:47:44.311Z,89.60
2017-05-18T22:50:13.301Z,89.80
2017-05-18T22:52:42.286Z,90.10
2017-05-18T22:55:11.281Z,90.00
2017-05-18T22:57:40.238Z,90.10
2017-05-18T23:00:09.580Z,89.60
2017-05-18T23:02:38.540Z,90.10
2017-05-18T23:05:07.954Z,90.20
2017-05-18T23:07:37.665Z,90.20
2017-05-18T23:10:07.737Z,90.20
2017-05-18T23:12:36.703Z,90.30
2017-05-18T23:15:05.655Z,90.40
2017-05-18T23:17:35.395Z,90.50
2017-05-18T23:20:04.370Z,90.60
2017-05-18T23:22:33.370Z,90.70
2017-05-18T23:25:02.321Z,90.60
2017-05-18T23:27:31.615Z,90.70
2017-05-18T23:30:00.573Z,90.80
2017-05-18T23:32:29.544Z,90.90
2017-05-18T23:34:58.530Z,91.00
2017-05-18T23:37:27.504Z,91.00
2017-05-18T23:39:56.506Z,91.30
2017-05-18T23:42:25.475Z,91.00
2017-05-18T23:44:55.222Z,90.90
2017-05-18T23:47:24.198Z,91.10
2017-05-18T23:49:53.166Z,91.20
2017-05-18T23:52:22.117Z,91.20
2017-05-18T23:54:51.089Z,91.20
2017-05-18T23:57:20.060Z,91.20
2017-05-18T23:59:49.408Z,91.20
